Flight Track Log - Related Links

Times and Time Zones

All times are in EDT time to prevent confusion due to time zone crossing. See the BOE2 flight status page for this flight to view local times or setup timezone preferences in your user account.

Time Position Orientation Groundspeed Altitude Reporting Facility
EDT Latitude Longitude Course Direction KTS MPH feet Rate Location/Type
Sat 05:46:37 PM 47.9558 -122.3030 260° West 39,000  Level Seattle Center
Sat 05:47:37 PM 47.9431 -122.4140 230° Southwest 407 468 5,000 -17,000 Descending Seattle Center
Sat 05:48:37 PM 47.8997 -122.4920 230° Southwest 301 346 5,000  Level Seattle Center
Sat 05:49:37 PM 47.8542 -122.5730 229° Southwest 280 322 5,000 1,650 Level Seattle Center
Sat 05:50:37 PM 47.8042 -122.6600 231° Southwest 263 303 8,300 3,350 Climbing Seattle Center
Sat 05:51:37 PM 47.7564 -122.7470 265° West 294 338 11,700 3,150 Climbing Seattle Center
Sat 05:52:37 PM 47.7486 -122.8820 272° West 312 359 14,600 1,900 Climbing Seattle Center
Sat 05:53:37 PM 47.7528 -123.0370 264° West 338 389 15,500 850 Climbing Seattle Center
Sat 05:54:37 PM 47.7425 -123.1840 249° West 358 412 16,300 1,700 Climbing Seattle Center
Sat 05:55:37 PM 47.7050 -123.3270 248° West 369 425 18,900 1,950 Climbing Seattle Center
Sat 05:56:37 PM 47.6650 -123.4750 246° West 379 436 20,200 2,500 Climbing Seattle Center
Sat 05:57:37 PM 47.6231 -123.6170 247° West 386 444 23,900 3,200 Climbing Seattle Center
Sat 05:58:37 PM 47.5808 -123.7640 247° West 391 450 26,600 2,150 Climbing Seattle Center
Sat 05:59:37 PM 47.5381 -123.9150 246° West 391 450 28,200 1,700 Climbing Seattle Center
Sat 06:00:37 PM 47.4908 -124.0740 241° Southwest 407 468 30,000 2,000 Climbing Seattle Center
Sat 06:01:37 PM 47.4331 -124.2260 204° Southwest 419 482 32,200 2,300 Climbing Seattle Center
Sat 06:02:37 PM 47.3328 -124.2910 182° South 408 470 34,600 2,250 Climbing Seattle Center
Sat 06:03:37 PM 47.2033 -124.2960 157° South 416 479 36,700 2,050 Climbing Seattle Center
Sat 06:04:37 PM 47.0772 -124.2160 162° South 421 484 38,700 1,100 Climbing Seattle Center
Sat 06:05:37 PM 46.9506 -124.1540 176° South 460 529 38,900 100 Climbing Seattle Center
Sat 06:06:37 PM 46.8197 -124.1400 179° South 472 543 38,900 50 Level Seattle Center
Sat 06:07:37 PM 46.6844 -124.1360 179° South 477 549 39,000  Climbing Seattle Center
Sat 06:08:37 PM 46.5514 -124.1310 181° South 477 549 38,900  Descending Seattle Center
Sat 06:09:37 PM 46.4053 -124.1350 180° South 477 549 39,000 50 Climbing Seattle Center
Sat 06:10:37 PM 46.2742 -124.1340 179° South 477 549 39,000 -2,650 Level Seattle Center
Sat 06:11:37 PM 46.1472 -124.1300 177° South 472 543 33,700 -12,000 Descending Seattle Center
Sat 06:12:37 PM 46.0206 -124.1200 178° South 465 535 15,000 -10,850 Descending Seattle Center
Sat 06:13:37 PM 45.8956 -124.1140 148° Southeast 458 527 12,000 -1,500 Descending Seattle Center
Sat 06:14:37 PM 45.7967 -124.0260 148° Southeast 408 470 12,000  Level Seattle Center

Login

Don't have an account? Register now (free) for customized features, flight alerts, and more!